Time;durP1;ratioP1;P1;durP2;ratioP2;P2;SDS_P1;SDS_P2;PMS_P1;PMS_P2;Temp;Humidity;BMP_temperature;BMP_pressure;BME280_temperature;BME280_humidity;BME280_pressure;Samples;Min_cycle;Max_cycle;Signal;HPM_P1;HPM_P2
2023/06/20 00:01:06;;;;;;;;;;;;;;;;;;5003329;28;19925;-71
2023/06/20 00:03:53;;;;;;;;;;;;;;;;;;4990001;28;19940;-71
2023/06/20 00:06:39;;;;;;;;;;;;;;;;;;4997191;28;19928;-72
2023/06/20 00:09:26;;;;;;;;;;;;;;;;;;5003660;28;19921;-72
2023/06/20 00:12:12;;;;;;;;;;;;;;;;;;5001975;28;19918;-71
2023/06/20 00:14:59;;;;;;;;;;;;;;;;;;4987795;28;20029;-71
2023/06/20 00:17:45;;;;;;;;;;;;;;;;;;4998244;28;19929;-69
2023/06/20 00:20:32;;;;;;;;;;;;;;;;;;4997881;28;19925;-72
2023/06/20 00:23:18;;;;;;;;;;;;;;;;;;5004692;28;19929;-72
2023/06/20 00:26:05;;;;;;;;;;;;;;;;;;5000641;28;19921;-71
2023/06/20 00:28:51;;;;;;;;;;;;;;;;;;5002313;28;20408;-70
2023/06/20 00:31:38;;;;;;;;;;;;;;;;;;5000378;28;19921;-71
2023/06/20 00:34:25;;;;;;;;;;;;;;;;;;5004286;28;19917;-71
2023/06/20 00:37:11;;;;;;;;;;;;;;;;;;5004091;28;19940;-70
2023/06/20 00:39:58;;;;;;;;;;;;;;;;;;4997332;28;19921;-71
2023/06/20 00:42:45;;;;;;;;;;;;;;;;;;5002023;28;19926;-71
2023/06/20 00:45:34;;;;;;;;;;;;;;;;;;5000987;28;19926;-71
2023/06/20 00:48:21;;;;;;;;;;;;;;;;;;5003482;28;19921;-71
2023/06/20 00:51:07;;;;;;;;;;;;;;;;;;5002312;28;19921;-71
2023/06/20 00:53:54;;;;;;;;;;;;;;;;;;5004191;28;19925;-71
2023/06/20 00:56:42;;;;;;;;;;;;;;;;;;5000134;28;20293;-72
2023/06/20 00:59:28;;;;;;;;;;;;;;;;;;5001358;28;19929;-72
2023/06/20 01:02:15;;;;;;;;;;;;;;;;;;4999537;28;19929;-72
2023/06/20 01:05:01;;;;;;;;;;;;;;;;;;5003788;28;19924;-72
2023/06/20 01:07:48;;;;;;;;;;;;;;;;;;4996594;28;20293;-72
2023/06/20 01:10:35;;;;;;;;;;;;;;;;;;4992341;28;19960;-71
2023/06/20 01:13:21;;;;;;;;;;;;;;;;;;4993936;28;19925;-71
2023/06/20 01:16:08;;;;;;;;;;;;;;;;;;5002346;28;20223;-71
2023/06/20 01:18:54;;;;;;;;;;;;;;;;;;4997762;28;19914;-71
2023/06/20 01:21:41;;;;;;;;;;;;;;;;;;5000978;28;19931;-72
2023/06/20 01:24:29;;;;;;;;;;;;;;;;;;5000600;28;19933;-72
2023/06/20 01:27:16;;;;;;;;;;;;;;;;;;5003344;28;20289;-71
2023/06/20 01:30:02;;;;;;;;;;;;;;;;;;5001352;28;19924;-71
2023/06/20 01:32:48;;;;;;;;;;;;;;;;;;4991870;28;19921;-71
2023/06/20 01:35:35;;;;;;;;;;;;;;;;;;4993744;28;19918;-72
2023/06/20 01:38:21;;;;;;;;;;;;;;;;;;4997521;28;19921;-71
2023/06/20 01:41:08;;;;;;;;;;;;;;;;;;4997773;28;19937;-71
2023/06/20 01:43:56;;;;;;;;;;;;;;;;;;5001378;28;19918;-71
2023/06/20 01:46:42;;;;;;;;;;;;;;;;;;4996423;28;19925;-71
2023/06/20 01:49:29;;;;;;;;;;;;;;;;;;4999004;28;19922;-72
2023/06/20 01:52:15;;;;;;;;;;;;;;;;;;5005014;28;19929;-72
2023/06/20 01:55:04;;;;;;;;;;;;;;;;;;5001785;28;19918;-72
2023/06/20 01:57:50;;;;;;;;;;;;;;;;;;5001414;28;19914;-71
2023/06/20 02:00:37;;;;;;;;;;;;;;;;;;5001167;28;20878;-71
2023/06/20 02:03:23;;;;;;;;;;;;;;;;;;4991663;28;19926;-71
2023/06/20 02:06:10;;;;;;;;;;;;;;;;;;4990587;28;19924;-72
2023/06/20 02:08:56;;;;;;;;;;;;;;;;;;5000952;28;19918;-72
2023/06/20 02:11:43;;;;;;;;;;;;;;;;;;4997488;28;19921;-71
2023/06/20 02:14:29;;;;;;;;;;;;;;;;;;5001867;28;19924;-71
2023/06/20 02:17:16;;;;;;;;;;;;;;;;;;5003269;28;19921;-71
2023/06/20 02:20:04;;;;;;;;;;;;;;;;;;5001720;28;19914;-70
2023/06/20 02:22:51;;;;;;;;;;;;;;;;;;4991644;28;20237;-71
2023/06/20 02:25:37;;;;;;;;;;;;;;;;;;5002244;28;19930;-71
2023/06/20 02:28:24;;;;;;;;;;;;;;;;;;5007200;28;19927;-71
2023/06/20 02:31:10;;;;;;;;;;;;;;;;;;5005915;28;19921;-71
2023/06/20 02:33:57;;;;;;;;;;;;;;;;;;4997828;28;19925;-71
2023/06/20 02:36:43;;;;;;;;;;;;;;;;;;4998740;28;19929;-71
2023/06/20 02:39:30;;;;;;;;;;;;;;;;;;5002024;28;20689;-72
2023/06/20 02:42:16;;;;;;;;;;;;;;;;;;5005111;28;20252;-71
2023/06/20 02:45:03;;;;;;;;;;;;;;;;;;5005929;28;19918;-71
2023/06/20 02:47:49;;;;;;;;;;;;;;;;;;4995801;28;19922;-71
2023/06/20 02:50:40;;;;;;;;;;;;;;;;;;5003492;28;19920;-72
2023/06/20 02:53:26;;;;;;;;;;;;;;;;;;4994054;28;20321;-72
2023/06/20 02:56:13;;;;;;;;;;;;;;;;;;5001117;28;19917;-71
2023/06/20 02:58:59;;;;;;;;;;;;;;;;;;4991805;28;20022;-71
2023/06/20 03:01:46;;;;;;;;;;;;;;;;;;5001581;28;19929;-71
2023/06/20 03:04:33;;;;;;;;;;;;;;;;;;5000422;28;19920;-72
2023/06/20 03:07:20;;;;;;;;;;;;;;;;;;4991573;28;19952;-71
2023/06/20 03:10:06;;;;;;;;;;;;;;;;;;5006840;28;20004;-71
2023/06/20 03:12:53;;;;;;;;;;;;;;;;;;5013654;28;19925;-71
2023/06/20 03:15:39;;;;;;;;;;;;;;;;;;5009584;28;20018;-71
2023/06/20 03:18:29;;;;;;;;;;;;;;;;;;5006048;28;19921;-72
2023/06/20 03:21:15;;;;;;;;;;;;;;;;;;5008416;28;20032;-71
2023/06/20 03:24:02;;;;;;;;;;;;;;;;;;5014182;28;19930;-72
2023/06/20 03:26:49;;;;;;;;;;;;;;;;;;5015095;28;20029;-72
2023/06/20 03:29:35;;;;;;;;;;;;;;;;;;5003820;28;19965;-72
2023/06/20 03:32:22;;;;;;;;;;;;;;;;;;5010514;28;19937;-72
2023/06/20 03:35:08;;;;;;;;;;;;;;;;;;5003248;28;20388;-72
2023/06/20 03:37:55;;;;;;;;;;;;;;;;;;5000709;28;19918;-72
2023/06/20 03:40:41;;;;;;;;;;;;;;;;;;5002876;28;19914;-70
2023/06/20 03:43:28;;;;;;;;;;;;;;;;;;5008176;28;20524;-71
2023/06/20 03:46:14;;;;;;;;;;;;;;;;;;5009498;28;19921;-70
2023/06/20 03:49:01;;;;;;;;;;;;;;;;;;5008636;28;19922;-71
2023/06/20 03:51:47;;;;;;;;;;;;;;;;;;5003071;28;19922;-70
2023/06/20 03:54:39;;;;;;;;;;;;;;;;;;5009582;28;19921;-71
2023/06/20 03:57:25;;;;;;;;;;;;;;;;;;5009321;28;19969;-74
2023/06/20 04:00:12;;;;;;;;;;;;;;;;;;5008480;28;19921;-72
2023/06/20 04:02:59;;;;;;;;;;;;;;;;;;5006934;28;19937;-70
2023/06/20 04:05:46;;;;;;;;;;;;;;;;;;5000799;28;19932;-71
2023/06/20 04:08:32;;;;;;;;;;;;;;;;;;5013589;28;20562;-70
2023/06/20 04:11:19;;;;;;;;;;;;;;;;;;5006588;28;19932;-70
2023/06/20 04:14:05;;;;;;;;;;;;;;;;;;5010879;28;20399;-71
2023/06/20 04:16:52;;;;;;;;;;;;;;;;;;5007946;28;19927;-71
2023/06/20 04:19:38;;;;;;;;;;;;;;;;;;5006502;28;19918;-71
2023/06/20 04:22:26;;;;;;;;;;;;;;;;;;5009127;28;20392;-70
2023/06/20 04:25:13;;;;;;;;;;;;;;;;;;5012930;28;19933;-70
2023/06/20 04:27:59;;;;;;;;;;;;;;;;;;5005339;28;20408;-71
2023/06/20 04:30:46;;;;;;;;;;;;;;;;;;5007947;28;19925;-70
2023/06/20 04:33:32;;;;;;;;;;;;;;;;;;5004567;28;19925;-70
2023/06/20 04:36:19;;;;;;;;;;;;;;;;;;5011079;28;20389;-71
2023/06/20 04:39:06;;;;;;;;;;;;;;;;;;5007131;28;19927;-70
2023/06/20 04:41:53;;;;;;;;;;;;;;;;;;5008064;28;19936;-71
2023/06/20 04:44:39;;;;;;;;;;;;;;;;;;5009988;28;20345;-71
2023/06/20 04:47:26;;;;;;;;;;;;;;;;;;5004456;28;19925;-72
2023/06/20 04:50:12;;;;;;;;;;;;;;;;;;4997781;28;20292;-71
2023/06/20 04:52:59;;;;;;;;;;;;;;;;;;4996426;28;19929;-71
2023/06/20 04:55:45;;;;;;;;;;;;;;;;;;5001763;28;19932;-72
2023/06/20 04:58:32;;;;;;;;;;;;;;;;;;5003045;28;19921;-72
2023/06/20 05:01:18;;;;;;;;;;;;;;;;;;4997793;28;19918;-71
2023/06/20 05:04:05;;;;;;;;;;;;;;;;;;5003010;28;19925;-71
2023/06/20 05:06:51;;;;;;;;;;;;;;;;;;5006527;28;19928;-71
2023/06/20 05:09:38;;;;;;;;;;;;;;;;;;5009272;28;19917;-71
2023/06/20 05:12:24;;;;;;;;;;;;;;;;;;5002778;28;19921;-70
2023/06/20 05:15:11;;;;;;;;;;;;;;;;;;4993036;28;20301;-70
2023/06/20 05:17:57;;;;;;;;;;;;;;;;;;5001934;28;20810;-71
2023/06/20 05:20:44;;;;;;;;;;;;;;;;;;5003857;28;19917;-70
2023/06/20 05:23:30;;;;;;;;;;;;;;;;;;5004332;28;19937;-72
2023/06/20 05:26:17;;;;;;;;;;;;;;;;;;5001344;28;19914;-69
2023/06/20 05:29:03;;;;;;;;;;;;;;;;;;4996456;28;20567;-70
2023/06/20 05:31:50;;;;;;;;;;;;;;;;;;5003597;28;19917;-70
2023/06/20 05:34:38;;;;;;;;;;;;;;;;;;4999287;28;19924;-71
2023/06/20 05:37:24;;;;;;;;;;;;;;;;;;5010317;28;19921;-70
2023/06/20 05:40:11;;;;;;;;;;;;;;;;;;4997857;28;20311;-70
2023/06/20 05:42:57;;;;;;;;;;;;;;;;;;5000171;28;19932;-70
2023/06/20 05:45:44;;;;;;;;;;;;;;;;;;5001649;28;20454;-70
2023/06/20 05:48:31;;;;;;;;;;;;;;;;;;5003041;28;19929;-71
2023/06/20 05:51:18;;;;;;;;;;;;;;;;;;5002663;28;19914;-70
2023/06/20 05:54:04;;;;;;;;;;;;;;;;;;5000025;28;19960;-70
2023/06/20 05:56:51;;;;;;;;;;;;;;;;;;5003173;28;19925;-70
2023/06/20 05:59:37;;;;;;;;;;;;;;;;;;4996530;28;19944;-71
2023/06/20 06:02:23;;;;;;;;;;;;;;;;;;4998636;28;19933;-71
2023/06/20 06:05:10;;;;;;;;;;;;;;;;;;4996332;28;19925;-70
2023/06/20 06:07:56;;;;;;;;;;;;;;;;;;5001550;28;19964;-70
2023/06/20 06:10:43;;;;;;;;;;;;;;;;;;5017054;28;19924;-71
2023/06/20 06:13:30;;;;;;;;;;;;;;;;;;5004717;28;19925;-70
2023/06/20 06:16:17;;;;;;;;;;;;;;;;;;5006226;28;19944;-71
2023/06/20 06:19:04;;;;;;;;;;;;;;;;;;5008695;28;19932;-72
2023/06/20 06:21:50;;;;;;;;;;;;;;;;;;5013039;28;19921;-71
2023/06/20 06:24:37;;;;;;;;;;;;;;;;;;5010398;28;20220;-72
2023/06/20 06:27:23;;;;;;;;;;;;;;;;;;5007788;28;19921;-72
2023/06/20 06:30:10;;;;;;;;;;;;;;;;;;5008110;28;19925;-72
2023/06/20 06:32:56;;;;;;;;;;;;;;;;;;5007378;28;19921;-72
2023/06/20 06:35:43;;;;;;;;;;;;;;;;;;5007187;28;19918;-72
2023/06/20 06:38:29;;;;;;;;;;;;;;;;;;5007921;28;20388;-72
2023/06/20 06:41:16;;;;;;;;;;;;;;;;;;4999407;28;19921;-72
2023/06/20 06:44:02;;;;;;;;;;;;;;;;;;5003368;28;19918;-72
2023/06/20 06:46:51;;;;;;;;;;;;;;;;;;5006331;28;20513;-73
2023/06/20 06:49:38;;;;;;;;;;;;;;;;;;5002319;28;19921;-73
2023/06/20 06:52:24;;;;;;;;;;;;;;;;;;5003297;28;19937;-73
2023/06/20 06:55:10;;;;;;;;;;;;;;;;;;5006576;28;19914;-72
2023/06/20 06:57:57;;;;;;;;;;;;;;;;;;5001745;28;20294;-73
2023/06/20 07:00:44;;;;;;;;;;;;;;;;;;5002600;28;19928;-73
2023/06/20 07:03:31;;;;;;;;;;;;;;;;;;4999345;28;19941;-74
2023/06/20 07:06:17;;;;;;;;;;;;;;;;;;5000070;28;19926;-72
2023/06/20 07:09:04;;;;;;;;;;;;;;;;;;5005502;28;19929;-73
2023/06/20 07:11:50;;;;;;;;;;;;;;;;;;5010262;28;19921;-73
2023/06/20 07:14:37;;;;;;;;;;;;;;;;;;5001491;28;19928;-73
2023/06/20 07:17:23;;;;;;;;;;;;;;;;;;5004928;28;20280;-73
2023/06/20 07:20:10;;;;;;;;;;;;;;;;;;4998980;28;19928;-72
2023/06/20 07:22:56;;;;;;;;;;;;;;;;;;4990529;28;19936;-73
2023/06/20 07:25:43;;;;;;;;;;;;;;;;;;5001015;28;20397;-74
2023/06/20 07:28:29;;;;;;;;;;;;;;;;;;4993955;28;19922;-73
2023/06/20 07:31:16;;;;;;;;;;;;;;;;;;5005816;28;19913;-72
2023/06/20 07:34:02;;;;;;;;;;;;;;;;;;5005814;28;20443;-72
2023/06/20 07:36:48;;;;;;;;;;;;;;;;;;4990402;28;19918;-72
2023/06/20 07:39:35;;;;;;;;;;;;;;;;;;5010143;28;19921;-73
2023/06/20 07:42:21;;;;;;;;;;;;;;;;;;5005519;28;19933;-73
2023/06/20 07:45:08;;;;;;;;;;;;;;;;;;5007986;28;19922;-73
2023/06/20 07:47:54;;;;;;;;;;;;;;;;;;5005086;28;19987;-73
2023/06/20 07:50:41;;;;;;;;;;;;;;;;;;5007918;28;20262;-71
2023/06/20 07:53:27;;;;;;;;;;;;;;;;;;5004590;28;19922;-71
2023/06/20 07:56:14;;;;;;;;;;;;;;;;;;4992556;28;19918;-71
2023/06/20 07:59:00;;;;;;;;;;;;;;;;;;5004498;28;19928;-71
2023/06/20 08:01:47;;;;;;;;;;;;;;;;;;5004924;28;19941;-72
2023/06/20 08:04:33;;;;;;;;;;;;;;;;;;4999681;28;20162;-73
2023/06/20 08:07:22;;;;;;;;;;;;;;;;;;5004946;28;19922;-72
2023/06/20 08:10:10;;;;;;;;;;;;;;;;;;5009000;28;19921;-72
2023/06/20 08:12:56;;;;;;;;;;;;;;;;;;4999134;28;19927;-73
2023/06/20 08:15:43;;;;;;;;;;;;;;;;;;4991828;28;19943;-73
2023/06/20 08:18:29;;;;;;;;;;;;;;;;;;5006066;28;19917;-73
2023/06/20 08:21:16;;;;;;;;;;;;;;;;;;5007245;28;19926;-73
2023/06/20 08:24:02;;;;;;;;;;;;;;;;;;5000127;28;19936;-74
2023/06/20 08:26:49;;;;;;;;;;;;;;;;;;5005402;28;19918;-73
2023/06/20 08:29:35;;;;;;;;;;;;;;;;;;5001599;28;19928;-73
2023/06/20 08:32:22;;;;;;;;;;;;;;;;;;4999008;28;19918;-71
2023/06/20 08:35:09;;;;;;;;;;;;;;;;;;5008672;28;20452;-74
2023/06/20 08:37:56;;;;;;;;;;;;;;;;;;5002372;28;19925;-74
2023/06/20 08:40:42;;;;;;;;;;;;;;;;;;4993316;28;19921;-74
2023/06/20 08:43:29;;;;;;;;;;;;;;;;;;5001083;28;19925;-73
2023/06/20 08:46:16;;;;;;;;;;;;;;;;;;5000254;28;19933;-74
2023/06/20 08:49:03;;;;;;;;;;;;;;;;;;4997460;28;19921;-74
2023/06/20 08:51:49;;;;;;;;;;;;;;;;;;4995466;28;19918;-75
2023/06/20 08:54:36;;;;;;;;;;;;;;;;;;4999263;28;20377;-73
2023/06/20 08:57:22;;;;;;;;;;;;;;;;;;5001008;28;19913;-73
2023/06/20 09:00:13;;;;;;;;;;;;;;;;;;5002444;28;19933;-71
2023/06/20 09:02:59;;;;;;;;;;;;;;;;;;5000538;28;19925;-73
2023/06/20 09:05:46;;;;;;;;;;;;;;;;;;4989466;28;19926;-73
2023/06/20 09:08:32;;;;;;;;;;;;;;;;;;5003588;28;19918;-74
2023/06/20 09:11:19;;;;;;;;;;;;;;;;;;5000571;28;19926;-72
2023/06/20 09:14:05;;;;;;;;;;;;;;;;;;4998480;28;19921;-74
2023/06/20 09:16:52;;;;;;;;;;;;;;;;;;5003564;28;19918;-74
2023/06/20 09:19:38;;;;;;;;;;;;;;;;;;5003408;28;19933;-73
2023/06/20 09:22:25;;;;;;;;;;;;;;;;;;5001823;28;19932;-73
2023/06/20 09:25:11;;;;;;;;;;;;;;;;;;5002056;28;19933;-74
2023/06/20 09:27:58;;;;;;;;;;;;;;;;;;4995893;28;19921;-74
2023/06/20 09:30:47;;;;;;;;;;;;;;;;;;4988776;28;20456;-74
2023/06/20 09:33:34;;;;;;;;;;;;;;;;;;5001427;28;19922;-74
2023/06/20 09:36:21;;;;;;;;;;;;;;;;;;4984304;28;19964;-73
2023/06/20 09:39:07;;;;;;;;;;;;;;;;;;4996862;28;19921;-73
2023/06/20 09:41:54;;;;;;;;;;;;;;;;;;5001265;28;20369;-72
2023/06/20 09:44:40;;;;;;;;;;;;;;;;;;4997866;28;19922;-74
2023/06/20 09:47:27;;;;;;;;;;;;;;;;;;5000043;28;19918;-74
2023/06/20 09:50:16;;;;;;;;;;;;;;;;;;5004369;28;20278;-74
2023/06/20 09:53:02;;;;;;;;;;;;;;;;;;4999500;28;19918;-74
2023/06/20 09:55:49;;;;;;;;;;;;;;;;;;4995328;28;19929;-73
2023/06/20 09:58:35;;;;;;;;;;;;;;;;;;5002953;28;19924;-73
2023/06/20 10:01:21;;;;;;;;;;;;;;;;;;4991239;28;19924;-73
2023/06/20 10:04:08;;;;;;;;;;;;;;;;;;5002897;28;19929;-73
2023/06/20 10:06:55;;;;;;;;;;;;;;;;;;4999618;28;20391;-74
2023/06/20 10:09:41;;;;;;;;;;;;;;;;;;4999219;28;19932;-74
2023/06/20 10:12:28;;;;;;;;;;;;;;;;;;4994776;28;19918;-74
2023/06/20 10:15:14;;;;;;;;;;;;;;;;;;4983605;28;19997;-74
2023/06/20 10:18:02;;;;;;;;;;;;;;;;;;4995261;28;19925;-73
2023/06/20 10:20:49;;;;;;;;;;;;;;;;;;4994348;28;19928;-75
2023/06/20 10:23:35;;;;;;;;;;;;;;;;;;4997379;28;19936;-74
2023/06/20 10:26:23;;;;;;;;;;;;;;;;;;5007226;28;19914;-74
2023/06/20 10:29:10;;;;;;;;;;;;;;;;;;5006396;28;19921;-71
2023/06/20 10:31:57;;;;;;;;;;;;;;;;;;5008116;28;19928;-71
2023/06/20 10:34:43;;;;;;;;;;;;;;;;;;4999215;28;19922;-71
2023/06/20 10:37:29;;;;;;;;;;;;;;;;;;5011741;28;19920;-72
2023/06/20 10:40:16;;;;;;;;;;;;;;;;;;4998311;28;19917;-71
2023/06/20 10:43:02;;;;;;;;;;;;;;;;;;5000778;28;19925;-72
2023/06/20 10:45:49;;;;;;;;;;;;;;;;;;5005429;28;19929;-72
2023/06/20 10:48:35;;;;;;;;;;;;;;;;;;4999853;28;20379;-73
2023/06/20 10:51:22;;;;;;;;;;;;;;;;;;5005959;28;19917;-73
2023/06/20 10:54:09;;;;;;;;;;;;;;;;;;5010441;28;20016;-72
2023/06/20 10:56:55;;;;;;;;;;;;;;;;;;5016430;28;19940;-71
2023/06/20 10:59:42;;;;;;;;;;;;;;;;;;5000467;28;19922;-72
2023/06/20 11:02:28;;;;;;;;;;;;;;;;;;5012605;28;19925;-72
2023/06/20 11:05:15;;;;;;;;;;;;;;;;;;5011542;28;19928;-77
2023/06/20 11:08:03;;;;;;;;;;;;;;;;;;5005107;28;19925;-72
2023/06/20 11:10:50;;;;;;;;;;;;;;;;;;5002296;28;19921;-70
2023/06/20 11:13:36;;;;;;;;;;;;;;;;;;5008422;28;20432;-71
2023/06/20 11:16:22;;;;;;;;;;;;;;;;;;5000385;28;19921;-71
2023/06/20 11:19:09;;;;;;;;;;;;;;;;;;5007799;28;19980;-72
2023/06/20 11:21:56;;;;;;;;;;;;;;;;;;5000980;28;19924;-72
2023/06/20 11:24:42;;;;;;;;;;;;;;;;;;5003934;28;19948;-70
2023/06/20 11:27:29;;;;;;;;;;;;;;;;;;5000406;28;20009;-72
2023/06/20 11:30:15;;;;;;;;;;;;;;;;;;5006499;28;20604;-72
2023/06/20 11:33:02;;;;;;;;;;;;;;;;;;5005357;28;19918;-72
2023/06/20 11:35:48;;;;;;;;;;;;;;;;;;5003792;28;20443;-74
2023/06/20 11:38:35;;;;;;;;;;;;;;;;;;5007324;28;19947;-74
2023/06/20 11:41:21;;;;;;;;;;;;;;;;;;4997398;28;20292;-73
2023/06/20 11:44:08;;;;;;;;;;;;;;;;;;5010981;28;19930;-74
2023/06/20 11:46:54;;;;;;;;;;;;;;;;;;5000136;28;19917;-74
2023/06/20 11:49:41;;;;;;;;;;;;;;;;;;5003360;28;19921;-74
2023/06/20 11:52:28;;;;;;;;;;;;;;;;;;5006266;28;20297;-74
2023/06/20 11:55:14;;;;;;;;;;;;;;;;;;5011287;28;19921;-74
2023/06/20 11:58:01;;;;;;;;;;;;;;;;;;5011014;28;19943;-74
2023/06/20 12:00:48;;;;;;;;;;;;;;;;;;5014291;28;19925;-74
2023/06/20 12:03:34;;;;;;;;;;;;;;;;;;5006591;28;19936;-75
2023/06/20 12:06:21;;;;;;;;;;;;;;;;;;5009441;28;19948;-75
2023/06/20 12:09:15;;;;;;;;;;;;;;;;;;5002903;28;19921;-74
2023/06/20 12:12:02;;;;;;;;;;;;;;;;;;5001447;28;19924;-73
2023/06/20 12:14:52;;;;;;;;;;;;;;;;;;4998262;28;19925;-73
2023/06/20 12:17:38;;;;;;;;;;;;;;;;;;5004461;28;19945;-73
2023/06/20 12:20:24;;;;;;;;;;;;;;;;;;5006016;28;20292;-73
2023/06/20 12:23:11;;;;;;;;;;;;;;;;;;5002004;28;19933;-72
2023/06/20 12:25:57;;;;;;;;;;;;;;;;;;5001466;28;19937;-74
2023/06/20 12:28:45;;;;;;;;;;;;;;;;;;5003007;28;19929;-74
2023/06/20 12:31:32;;;;;;;;;;;;;;;;;;5009816;28;19926;-74
2023/06/20 12:34:18;;;;;;;;;;;;;;;;;;5012255;28;19921;-73
2023/06/20 12:37:06;;;;;;;;;;;;;;;;;;5006980;28;19921;-73
2023/06/20 12:39:53;;;;;;;;;;;;;;;;;;5008928;28;19925;-73
2023/06/20 12:42:39;;;;;;;;;;;;;;;;;;5013508;28;19926;-73
2023/06/20 12:45:26;;;;;;;;;;;;;;;;;;4994869;28;20388;-73
2023/06/20 12:48:12;;;;;;;;;;;;;;;;;;4996765;28;19956;-73
2023/06/20 12:50:59;;;;;;;;;;;;;;;;;;5013281;28;19913;-72
2023/06/20 12:53:45;;;;;;;;;;;;;;;;;;5008002;28;20589;-74
2023/06/20 12:56:32;;;;;;;;;;;;;;;;;;5010060;28;19960;-74
2023/06/20 12:59:18;;;;;;;;;;;;;;;;;;5011262;28;19929;-74
2023/06/20 13:02:05;;;;;;;;;;;;;;;;;;4991266;28;19922;-74
2023/06/20 13:04:53;;;;;;;;;;;;;;;;;;5000670;28;20372;-74
2023/06/20 13:07:40;;;;;;;;;;;;;;;;;;4991303;28;19925;-74
2023/06/20 13:10:28;;;;;;;;;;;;;;;;;;5003180;28;19922;-75
2023/06/20 13:13:15;;;;;;;;;;;;;;;;;;5005199;28;19917;-73
2023/06/20 13:16:01;;;;;;;;;;;;;;;;;;5002137;28;19993;-73
2023/06/20 13:18:50;;;;;;;;;;;;;;;;;;4994605;28;19918;-74
2023/06/20 13:21:38;;;;;;;;;;;;;;;;;;5001538;28;19941;-73
2023/06/20 13:24:25;;;;;;;;;;;;;;;;;;5004984;28;19936;-73
2023/06/20 13:27:11;;;;;;;;;;;;;;;;;;5003872;28;19922;-73
2023/06/20 13:29:58;;;;;;;;;;;;;;;;;;5002739;28;19928;-74
2023/06/20 13:32:44;;;;;;;;;;;;;;;;;;4993679;28;20402;-73
2023/06/20 13:35:31;;;;;;;;;;;;;;;;;;5005879;28;19925;-73
2023/06/20 13:38:17;;;;;;;;;;;;;;;;;;4997946;28;20252;-73
2023/06/20 13:41:04;;;;;;;;;;;;;;;;;;5001511;28;20480;-74
2023/06/20 13:43:50;;;;;;;;;;;;;;;;;;4990711;28;19926;-73
2023/06/20 13:46:37;;;;;;;;;;;;;;;;;;4991300;28;19927;-74
2023/06/20 13:49:25;;;;;;;;;;;;;;;;;;4997279;28;19951;-74
2023/06/20 13:52:11;;;;;;;;;;;;;;;;;;4989329;28;19922;-73
2023/06/20 13:54:58;;;;;;;;;;;;;;;;;;5001859;28;19928;-74
2023/06/20 13:57:44;;;;;;;;;;;;;;;;;;4994234;28;19918;-74
2023/06/20 14:00:31;;;;;;;;;;;;;;;;;;5002123;28;19925;-74
2023/06/20 14:03:17;;;;;;;;;;;;;;;;;;5000479;28;19925;-74
2023/06/20 14:06:04;;;;;;;;;;;;;;;;;;4999974;28;19917;-72
2023/06/20 14:08:50;;;;;;;;;;;;;;;;;;4994960;28;19918;-74
2023/06/20 14:11:37;;;;;;;;;;;;;;;;;;4999282;28;20699;-74
2023/06/20 14:14:28;;;;;;;;;;;;;;;;;;5003972;28;19921;-73
2023/06/20 14:17:14;;;;;;;;;;;;;;;;;;4992014;28;20392;-74
2023/06/20 14:20:01;;;;;;;;;;;;;;;;;;5006837;28;19928;-73
2023/06/20 14:22:47;;;;;;;;;;;;;;;;;;4996551;28;19929;-74
2023/06/20 14:25:34;;;;;;;;;;;;;;;;;;5000282;28;19933;-73
2023/06/20 14:28:24;;;;;;;;;;;;;;;;;;5007140;28;20298;-73
2023/06/20 14:31:10;;;;;;;;;;;;;;;;;;4998718;28;20385;-73
2023/06/20 14:33:57;;;;;;;;;;;;;;;;;;4998570;28;19929;-74
2023/06/20 14:36:43;;;;;;;;;;;;;;;;;;4999145;28;19921;-73
2023/06/20 14:39:31;;;;;;;;;;;;;;;;;;5002358;28;19964;-74
2023/06/20 14:42:17;;;;;;;;;;;;;;;;;;5008546;28;19921;-75
2023/06/20 14:45:03;;;;;;;;;;;;;;;;;;5005939;28;19937;-74
2023/06/20 14:47:50;;;;;;;;;;;;;;;;;;5001298;28;19922;-74
2023/06/20 14:50:37;;;;;;;;;;;;;;;;;;5001533;28;19913;-74
2023/06/20 14:53:24;;;;;;;;;;;;;;;;;;4997625;28;19921;-74
2023/06/20 14:56:10;;;;;;;;;;;;;;;;;;4999826;28;19932;-74
2023/06/20 14:58:57;;;;;;;;;;;;;;;;;;4998795;28;19917;-75
2023/06/20 15:01:43;;;;;;;;;;;;;;;;;;5003166;28;19921;-74
2023/06/20 15:04:30;;;;;;;;;;;;;;;;;;5000731;28;19926;-75
2023/06/20 15:07:16;;;;;;;;;;;;;;;;;;5003947;28;19929;-74
2023/06/20 15:10:03;;;;;;;;;;;;;;;;;;5005912;28;20296;-73
2023/06/20 15:12:49;;;;;;;;;;;;;;;;;;5001214;28;19917;-73
2023/06/20 15:15:36;;;;;;;;;;;;;;;;;;5003086;28;20538;-75
2023/06/20 15:18:23;;;;;;;;;;;;;;;;;;5003645;28;19922;-74
2023/06/20 15:21:09;;;;;;;;;;;;;;;;;;5008908;28;19927;-74
2023/06/20 15:23:56;;;;;;;;;;;;;;;;;;4996744;28;19936;-75
2023/06/20 15:26:42;;;;;;;;;;;;;;;;;;4992030;28;20296;-74
2023/06/20 15:29:29;;;;;;;;;;;;;;;;;;4978796;28;19918;-75
2023/06/20 15:32:15;;;;;;;;;;;;;;;;;;4985232;28;19922;-74
2023/06/20 15:35:02;;;;;;;;;;;;;;;;;;4984211;28;19932;-73
2023/06/20 15:37:48;;;;;;;;;;;;;;;;;;4982103;28;20552;-74
2023/06/20 15:40:35;;;;;;;;;;;;;;;;;;4977430;28;19922;-75
2023/06/20 15:43:21;;;;;;;;;;;;;;;;;;4979265;28;19965;-74
2023/06/20 15:46:08;;;;;;;;;;;;;;;;;;4977506;28;19917;-74
2023/06/20 15:48:58;;;;;;;;;;;;;;;;;;4980760;28;19921;-74
2023/06/20 15:51:44;;;;;;;;;;;;;;;;;;4988333;28;19921;-74
2023/06/20 15:54:31;;;;;;;;;;;;;;;;;;4984051;28;19921;-74
2023/06/20 15:57:17;;;;;;;;;;;;;;;;;;4972657;28;19926;-75
2023/06/20 16:00:05;;;;;;;;;;;;;;;;;;4977317;28;19918;-74
2023/06/20 16:02:51;;;;;;;;;;;;;;;;;;4979583;28;19976;-74
2023/06/20 16:05:38;;;;;;;;;;;;;;;;;;4972261;28;19922;-74
2023/06/20 16:08:24;;;;;;;;;;;;;;;;;;4980276;28;19926;-74
2023/06/20 16:11:12;;;;;;;;;;;;;;;;;;4982468;28;19928;-75
2023/06/20 16:13:59;;;;;;;;;;;;;;;;;;4979970;28;20404;-74
2023/06/20 16:16:45;;;;;;;;;;;;;;;;;;4980759;28;19918;-74
2023/06/20 16:19:32;;;;;;;;;;;;;;;;;;4980164;28;19921;-75
2023/06/20 16:22:18;;;;;;;;;;;;;;;;;;4978331;28;20596;-74
2023/06/20 16:25:05;;;;;;;;;;;;;;;;;;4979791;28;19933;-75
2023/06/20 16:27:54;;;;;;;;;;;;;;;;;;4976281;28;19925;-74
2023/06/20 16:30:40;;;;;;;;;;;;;;;;;;4976959;28;19922;-73
2023/06/20 16:33:27;;;;;;;;;;;;;;;;;;4974012;28;19944;-75
2023/06/20 16:36:13;;;;;;;;;;;;;;;;;;4982093;28;20018;-75
2023/06/20 16:39:00;;;;;;;;;;;;;;;;;;4991793;28;19921;-74
2023/06/20 16:41:46;;;;;;;;;;;;;;;;;;4990410;28;20396;-74
2023/06/20 16:44:33;;;;;;;;;;;;;;;;;;4982887;28;19930;-74
2023/06/20 16:47:20;;;;;;;;;;;;;;;;;;4978626;28;19926;-74
2023/06/20 16:50:06;;;;;;;;;;;;;;;;;;4979659;28;20449;-74
2023/06/20 16:52:53;;;;;;;;;;;;;;;;;;4990874;28;19928;-73
2023/06/20 16:55:40;;;;;;;;;;;;;;;;;;4974299;28;19922;-74
2023/06/20 16:58:27;;;;;;;;;;;;;;;;;;4984709;28;20408;-76
2023/06/20 17:01:13;;;;;;;;;;;;;;;;;;4983926;28;19929;-74
2023/06/20 17:04:00;;;;;;;;;;;;;;;;;;4983144;28;19929;-74
2023/06/20 17:06:46;;;;;;;;;;;;;;;;;;4979908;28;20404;-74
2023/06/20 17:09:34;;;;;;;;;;;;;;;;;;4982087;28;19933;-72
2023/06/20 17:12:20;;;;;;;;;;;;;;;;;;4987136;28;19945;-72
2023/06/20 17:15:07;;;;;;;;;;;;;;;;;;4983096;28;19921;-72
2023/06/20 17:17:55;;;;;;;;;;;;;;;;;;4984318;28;19956;-72
2023/06/20 17:20:42;;;;;;;;;;;;;;;;;;4979041;28;20975;-70
2023/06/20 17:23:28;;;;;;;;;;;;;;;;;;4984108;28;19963;-71
2023/06/20 17:26:15;;;;;;;;;;;;;;;;;;5004146;28;20582;-71
2023/06/20 17:29:01;;;;;;;;;;;;;;;;;;5004671;28;19917;-72
2023/06/20 17:31:51;;;;;;;;;;;;;;;;;;4994738;28;19958;-72
2023/06/20 17:34:37;;;;;;;;;;;;;;;;;;4998725;28;19925;-71
2023/06/20 17:37:24;;;;;;;;;;;;;;;;;;5003407;28;20579;-70
2023/06/20 17:40:10;;;;;;;;;;;;;;;;;;5003223;28;20288;-72
2023/06/20 17:42:57;;;;;;;;;;;;;;;;;;5005757;28;19922;-71
2023/06/20 17:45:43;;;;;;;;;;;;;;;;;;5004399;28;20395;-72
2023/06/20 17:48:30;;;;;;;;;;;;;;;;;;4997389;28;19914;-72
2023/06/20 17:51:16;;;;;;;;;;;;;;;;;;5000411;28;19929;-71
2023/06/20 17:54:03;;;;;;;;;;;;;;;;;;4997163;28;19928;-70
2023/06/20 17:56:49;;;;;;;;;;;;;;;;;;4993183;28;20393;-70
2023/06/20 17:59:36;;;;;;;;;;;;;;;;;;4991646;28;19918;-72
2023/06/20 18:02:22;;;;;;;;;;;;;;;;;;5002714;28;19921;-71
2023/06/20 18:05:09;;;;;;;;;;;;;;;;;;5007715;28;20440;-70
2023/06/20 18:07:56;;;;;;;;;;;;;;;;;;5005318;28;20348;-70
2023/06/20 18:10:44;;;;;;;;;;;;;;;;;;5012274;28;19922;-71
2023/06/20 18:13:30;;;;;;;;;;;;;;;;;;4990785;28;19918;-71
2023/06/20 18:16:17;;;;;;;;;;;;;;;;;;5006652;28;19923;-72
2023/06/20 18:19:03;;;;;;;;;;;;;;;;;;5001618;28;19921;-72
2023/06/20 18:21:50;;;;;;;;;;;;;;;;;;4996921;28;19922;-72
2023/06/20 18:24:37;;;;;;;;;;;;;;;;;;4981860;28;20000;-72
2023/06/20 18:27:23;;;;;;;;;;;;;;;;;;4983868;28;19933;-72
2023/06/20 18:30:10;;;;;;;;;;;;;;;;;;4978532;28;19921;-71
2023/06/20 18:32:56;;;;;;;;;;;;;;;;;;4981603;28;20958;-72
2023/06/20 18:35:43;;;;;;;;;;;;;;;;;;4996157;28;19928;-72
2023/06/20 18:38:29;;;;;;;;;;;;;;;;;;4975549;28;19929;-73
2023/06/20 18:41:16;;;;;;;;;;;;;;;;;;4979005;28;20278;-72
2023/06/20 18:44:02;;;;;;;;;;;;;;;;;;4989586;28;19941;-72
2023/06/20 18:46:49;;;;;;;;;;;;;;;;;;4979315;28;19948;-71
2023/06/20 18:49:35;;;;;;;;;;;;;;;;;;4993423;28;19928;-72
2023/06/20 18:52:22;;;;;;;;;;;;;;;;;;4995412;28;19914;-73
2023/06/20 18:55:08;;;;;;;;;;;;;;;;;;4985446;28;19932;-71
2023/06/20 18:57:55;;;;;;;;;;;;;;;;;;4978611;28;19915;-72